createdAt,value
2018-03-31T00:00:22.250Z,999.70
2018-03-31T00:01:22.248Z,999.73
2018-03-31T00:02:22.235Z,999.64
2018-03-31T00:03:22.228Z,999.65
2018-03-31T00:04:22.220Z,999.64
2018-03-31T00:05:22.212Z,999.67
2018-03-31T00:06:22.197Z,999.67
2018-03-31T00:07:22.191Z,999.61
2018-03-31T00:08:22.179Z,999.66
2018-03-31T00:09:22.171Z,999.66
2018-03-31T00:10:22.161Z,999.68
2018-03-31T00:11:22.151Z,999.72
2018-03-31T00:12:22.144Z,999.74
2018-03-31T00:13:22.142Z,999.74
2018-03-31T00:14:22.127Z,999.75
2018-03-31T00:15:22.116Z,999.72
2018-03-31T00:16:22.104Z,999.69
2018-03-31T00:17:22.099Z,999.68
2018-03-31T00:18:22.086Z,999.70
2018-03-31T00:19:22.078Z,999.66
2018-03-31T00:20:22.067Z,999.66
2018-03-31T00:21:22.069Z,999.72
2018-03-31T00:22:22.051Z,999.64
2018-03-31T00:23:22.042Z,999.57
2018-03-31T00:24:22.032Z,999.62
2018-03-31T00:25:22.024Z,999.55
2018-03-31T00:26:22.025Z,999.55
2018-03-31T00:27:22.007Z,999.56
2018-03-31T00:28:21.996Z,999.53
2018-03-31T00:29:21.986Z,999.49
2018-03-31T00:30:21.975Z,999.53
2018-03-31T00:31:21.968Z,999.54
2018-03-31T00:32:21.961Z,999.45
2018-03-31T00:33:21.950Z,999.40
2018-03-31T00:34:21.939Z,999.37
2018-03-31T00:35:21.929Z,999.40
2018-03-31T00:36:21.923Z,999.36
2018-03-31T00:37:21.915Z,999.40
2018-03-31T00:38:21.904Z,999.37
2018-03-31T00:39:21.896Z,999.34
2018-03-31T00:40:21.887Z,999.37
2018-03-31T00:41:21.875Z,999.36
2018-03-31T00:42:21.869Z,999.38
2018-03-31T00:43:21.857Z,999.40
2018-03-31T00:44:21.850Z,999.35
2018-03-31T00:45:21.836Z,999.35
2018-03-31T00:46:21.823Z,999.31
2018-03-31T00:47:21.819Z,999.33
2018-03-31T00:48:21.817Z,999.23
2018-03-31T00:49:21.801Z,999.23
2018-03-31T00:50:21.794Z,999.24
2018-03-31T00:51:21.782Z,999.22
2018-03-31T00:52:21.844Z,999.18
2018-03-31T00:53:21.766Z,999.20
2018-03-31T00:54:21.754Z,999.18
2018-03-31T00:55:21.744Z,999.15
2018-03-31T00:56:21.736Z,999.12
2018-03-31T00:57:21.726Z,999.12
2018-03-31T00:58:21.715Z,999.14
2018-03-31T00:59:21.706Z,999.06
2018-03-31T01:00:21.699Z,999.11
2018-03-31T01:01:21.688Z,999.18
2018-03-31T01:02:21.678Z,999.12
2018-03-31T01:03:21.670Z,999.12
2018-03-31T01:04:21.658Z,999.09
2018-03-31T01:05:21.653Z,999.12
2018-03-31T01:06:21.638Z,999.13
2018-03-31T01:07:21.631Z,999.15
2018-03-31T01:08:21.620Z,999.05
2018-03-31T01:09:21.614Z,999.03
2018-03-31T01:10:21.602Z,999.03
2018-03-31T01:11:21.593Z,998.97
2018-03-31T01:12:21.581Z,998.95
2018-03-31T01:13:21.575Z,998.97
2018-03-31T01:14:21.563Z,998.94
2018-03-31T01:15:21.554Z,998.93
2018-03-31T01:16:21.548Z,998.95
2018-03-31T01:17:21.535Z,998.94
2018-03-31T01:18:21.529Z,998.92
2018-03-31T01:19:21.515Z,999.10
2018-03-31T01:20:21.506Z,999.00
2018-03-31T01:21:21.498Z,998.98
2018-03-31T01:22:21.486Z,998.96
2018-03-31T01:23:21.478Z,998.96
2018-03-31T01:24:21.467Z,998.94
2018-03-31T01:25:21.456Z,999.03
2018-03-31T01:26:21.448Z,999.01
2018-03-31T01:27:21.438Z,998.93
2018-03-31T01:28:21.438Z,998.92
2018-03-31T01:29:21.420Z,998.95
2018-03-31T01:30:21.407Z,998.96
2018-03-31T01:31:21.399Z,998.80
2018-03-31T01:32:21.387Z,998.93
2018-03-31T01:33:21.381Z,998.87
2018-03-31T01:34:21.370Z,998.91
2018-03-31T01:35:21.361Z,998.89
2018-03-31T01:36:21.351Z,998.87
2018-03-31T01:37:21.340Z,998.85
2018-03-31T01:38:21.332Z,998.94
2018-03-31T01:39:21.325Z,998.89
2018-03-31T01:40:21.313Z,998.90
2018-03-31T01:41:21.308Z,998.83
2018-03-31T01:42:21.294Z,998.82
2018-03-31T01:43:21.279Z,998.80
2018-03-31T01:44:21.274Z,998.76
2018-03-31T01:45:21.264Z,998.80
2018-03-31T01:46:21.252Z,998.77
2018-03-31T01:47:21.244Z,998.74
2018-03-31T01:48:21.236Z,998.75
2018-03-31T01:49:21.224Z,998.74
2018-03-31T01:50:21.216Z,998.79
2018-03-31T01:51:21.202Z,998.80
2018-03-31T01:52:21.193Z,998.76
2018-03-31T01:53:21.186Z,998.77
2018-03-31T01:54:21.174Z,998.73
2018-03-31T01:55:21.165Z,998.71
2018-03-31T01:56:21.154Z,998.74
2018-03-31T01:57:21.146Z,998.78
2018-03-31T01:58:21.136Z,998.78
2018-03-31T01:59:21.126Z,998.77
2018-03-31T02:00:21.117Z,998.75
2018-03-31T02:01:21.107Z,998.73
2018-03-31T02:02:21.097Z,998.74
2018-03-31T02:03:21.087Z,998.74
2018-03-31T02:04:21.076Z,998.74
2018-03-31T02:05:21.067Z,998.78
2018-03-31T02:06:21.057Z,998.72
2018-03-31T02:07:21.053Z,998.73
2018-03-31T02:08:21.040Z,998.75
2018-03-31T02:09:21.027Z,998.75
2018-03-31T02:10:21.025Z,998.81
2018-03-31T02:11:21.008Z,998.79
2018-03-31T02:12:21.003Z,998.78
2018-03-31T02:13:20.989Z,998.73
2018-03-31T02:14:20.978Z,998.71
2018-03-31T02:15:20.970Z,998.64
2018-03-31T02:16:20.960Z,998.64
2018-03-31T02:17:20.987Z,998.65
2018-03-31T02:18:20.938Z,998.62
2018-03-31T02:19:20.930Z,998.62
2018-03-31T02:20:20.920Z,998.61
2018-03-31T02:21:20.911Z,998.56
2018-03-31T02:22:20.903Z,998.47
2018-03-31T02:23:20.888Z,998.48
2018-03-31T02:24:20.880Z,998.46
2018-03-31T02:25:20.873Z,998.42
2018-03-31T02:26:20.861Z,998.39
2018-03-31T02:27:20.851Z,998.39
2018-03-31T02:28:20.841Z,998.43
2018-03-31T02:29:20.834Z,998.40
2018-03-31T02:30:20.822Z,998.41
2018-03-31T02:31:20.813Z,998.45
2018-03-31T02:32:20.803Z,998.39
2018-03-31T02:33:20.801Z,998.42
2018-03-31T02:34:20.784Z,998.40
2018-03-31T02:35:20.772Z,998.36
2018-03-31T02:36:20.767Z,998.32
2018-03-31T02:37:20.754Z,998.28
2018-03-31T02:38:20.744Z,998.29
2018-03-31T02:39:20.731Z,998.29
2018-03-31T02:40:20.723Z,998.34
2018-03-31T02:41:20.719Z,998.26
2018-03-31T02:42:20.705Z,998.25
2018-03-31T02:43:20.695Z,998.22
2018-03-31T02:44:20.683Z,998.21
2018-03-31T02:45:20.674Z,998.19
2018-03-31T02:46:20.673Z,998.28
2018-03-31T02:47:20.654Z,998.25
2018-03-31T02:48:20.647Z,998.21
2018-03-31T02:49:20.638Z,998.15
2018-03-31T02:50:20.626Z,998.13
2018-03-31T02:51:20.655Z,998.19
2018-03-31T02:52:20.605Z,998.12
2018-03-31T02:53:20.598Z,998.16
2018-03-31T02:54:20.586Z,998.10
2018-03-31T02:55:20.581Z,998.10
2018-03-31T02:56:20.567Z,998.15
2018-03-31T02:57:20.557Z,998.19
2018-03-31T02:58:20.547Z,998.19
2018-03-31T02:59:20.535Z,998.18
2018-03-31T03:00:20.526Z,998.11
2018-03-31T03:01:20.517Z,998.10
2018-03-31T03:02:20.505Z,998.09
2018-03-31T03:03:20.497Z,998.08
2018-03-31T03:04:20.487Z,997.97
2018-03-31T03:05:20.477Z,998.04
2018-03-31T03:06:20.468Z,998.00
2018-03-31T03:07:20.459Z,997.94
2018-03-31T03:08:20.446Z,997.92
2018-03-31T03:09:20.436Z,997.91
2018-03-31T03:10:20.424Z,997.89
2018-03-31T03:11:20.415Z,997.88
2018-03-31T03:12:20.406Z,997.82
2018-03-31T03:13:20.395Z,997.80
2018-03-31T03:14:20.384Z,997.77
2018-03-31T03:15:20.377Z,997.74
2018-03-31T03:16:20.365Z,997.74
2018-03-31T03:17:20.356Z,997.75
2018-03-31T03:18:20.345Z,997.74
2018-03-31T03:19:20.352Z,997.72
2018-03-31T03:20:20.326Z,997.78
2018-03-31T03:21:20.315Z,997.85
2018-03-31T03:22:20.305Z,997.84
2018-03-31T03:23:20.295Z,997.86
2018-03-31T03:24:20.287Z,997.83
2018-03-31T03:25:20.276Z,997.84
2018-03-31T03:26:20.265Z,997.80
2018-03-31T03:27:20.253Z,997.74
2018-03-31T03:28:20.244Z,997.77
2018-03-31T03:29:20.237Z,997.73
2018-03-31T03:30:20.226Z,997.72
2018-03-31T03:31:20.217Z,997.63
2018-03-31T03:32:20.204Z,997.67
2018-03-31T03:33:20.194Z,997.65
2018-03-31T03:34:20.184Z,997.66
2018-03-31T03:35:20.208Z,997.52
2018-03-31T03:36:20.163Z,997.60
2018-03-31T03:37:20.153Z,997.49
2018-03-31T03:38:20.144Z,997.58
2018-03-31T03:39:20.131Z,997.55
2018-03-31T03:40:20.123Z,997.59
2018-03-31T03:41:20.114Z,997.52
2018-03-31T03:42:20.100Z,997.56
2018-03-31T03:43:20.093Z,997.48
2018-03-31T03:44:20.082Z,997.50
2018-03-31T03:45:20.068Z,997.46
2018-03-31T03:46:20.062Z,997.45
2018-03-31T03:47:20.052Z,997.50
2018-03-31T03:48:20.042Z,997.57
2018-03-31T03:49:20.034Z,997.61
2018-03-31T03:50:20.019Z,997.62
2018-03-31T03:51:20.010Z,997.61
2018-03-31T03:52:20.002Z,997.57
2018-03-31T03:53:19.988Z,997.57
2018-03-31T03:54:19.979Z,997.63
2018-03-31T03:55:19.971Z,997.70
2018-03-31T03:56:19.966Z,997.69
2018-03-31T03:57:19.950Z,997.67
2018-03-31T03:58:19.938Z,997.68
2018-03-31T03:59:19.929Z,997.60
2018-03-31T04:00:19.921Z,997.64
2018-03-31T04:01:19.931Z,997.55
2018-03-31T04:02:19.898Z,997.55
2018-03-31T04:03:19.887Z,997.58
2018-03-31T04:04:19.877Z,997.52
2018-03-31T04:05:19.869Z,997.52
2018-03-31T04:06:19.861Z,997.55
2018-03-31T04:07:19.847Z,997.57
2018-03-31T04:08:19.838Z,997.56
2018-03-31T04:09:19.829Z,997.59
2018-03-31T04:10:19.820Z,997.59
2018-03-31T04:11:19.808Z,997.55
2018-03-31T04:12:19.797Z,997.59
2018-03-31T04:13:19.791Z,997.60
2018-03-31T04:14:19.776Z,997.54
2018-03-31T04:15:19.768Z,997.56
2018-03-31T04:16:19.790Z,997.54
2018-03-31T04:17:19.756Z,997.48
2018-03-31T04:18:19.736Z,997.49
2018-03-31T04:19:19.726Z,997.36
2018-03-31T04:20:19.720Z,997.39
2018-03-31T04:21:19.707Z,997.46
2018-03-31T04:22:19.697Z,997.50
2018-03-31T04:23:19.685Z,997.50
2018-03-31T04:24:19.725Z,997.37
2018-03-31T04:25:19.670Z,997.47
2018-03-31T04:26:19.654Z,997.43
2018-03-31T04:27:19.639Z,997.41
2018-03-31T04:28:19.636Z,997.39
2018-03-31T04:29:19.624Z,997.35
2018-03-31T04:30:19.612Z,997.45
2018-03-31T04:31:19.606Z,997.41
2018-03-31T04:32:19.592Z,997.36
2018-03-31T04:33:19.581Z,997.31
2018-03-31T04:34:19.573Z,997.26
2018-03-31T04:35:19.560Z,997.23
2018-03-31T04:36:19.552Z,997.23
2018-03-31T04:37:19.541Z,997.30
2018-03-31T04:38:19.530Z,997.20
2018-03-31T04:39:19.523Z,997.18
2018-03-31T04:40:19.512Z,997.15
2018-03-31T04:41:19.499Z,997.19
2018-03-31T04:42:19.495Z,997.13
2018-03-31T04:43:19.477Z,997.19
2018-03-31T04:44:19.470Z,997.23
2018-03-31T04:45:19.464Z,997.24
2018-03-31T04:46:19.447Z,997.16
2018-03-31T04:47:19.438Z,997.32
2018-03-31T04:48:19.478Z,997.20
2018-03-31T04:49:19.423Z,997.20
2018-03-31T04:50:19.413Z,997.22
2018-03-31T04:51:19.400Z,997.18
2018-03-31T04:52:19.390Z,997.16
2018-03-31T04:53:19.380Z,997.19
2018-03-31T04:54:19.371Z,997.17
2018-03-31T04:55:19.358Z,997.21
2018-03-31T04:56:19.348Z,997.22
2018-03-31T04:57:19.341Z,997.26
2018-03-31T04:58:19.329Z,997.20
2018-03-31T04:59:19.319Z,997.26
2018-03-31T05:00:19.309Z,997.30
2018-03-31T05:01:19.299Z,997.24
2018-03-31T05:02:19.290Z,997.21
2018-03-31T05:03:19.290Z,997.24
2018-03-31T05:04:19.268Z,997.18
2018-03-31T05:05:19.256Z,997.21
2018-03-31T05:06:19.251Z,997.28
2018-03-31T05:07:19.239Z,997.19
2018-03-31T05:08:19.229Z,997.22
2018-03-31T05:09:19.223Z,997.20
2018-03-31T05:10:19.217Z,997.15
2018-03-31T05:11:19.200Z,997.23
2018-03-31T05:12:19.193Z,997.17
2018-03-31T05:13:19.180Z,997.22
2018-03-31T05:14:19.168Z,997.23
2018-03-31T05:15:19.157Z,997.18
2018-03-31T05:16:19.149Z,997.26
2018-03-31T05:17:19.140Z,997.24
2018-03-31T05:18:19.130Z,997.24
2018-03-31T05:19:19.116Z,997.23
2018-03-31T05:20:19.116Z,997.22
2018-03-31T05:21:19.104Z,997.20
2018-03-31T05:22:19.104Z,997.10
2018-03-31T05:23:19.082Z,997.16
2018-03-31T05:24:20.033Z,997.17
2018-03-31T05:25:19.059Z,997.10
2018-03-31T05:26:19.136Z,997.16
2018-03-31T05:27:19.037Z,997.03
2018-03-31T05:28:19.058Z,997.22
2018-03-31T05:29:19.017Z,997.29
2018-03-31T05:30:19.026Z,997.14
2018-03-31T05:31:19.000Z,997.08
2018-03-31T05:32:18.988Z,997.08
2018-03-31T05:33:18.977Z,997.08
2018-03-31T05:34:18.969Z,997.08
2018-03-31T05:35:18.964Z,997.11
2018-03-31T05:36:18.963Z,997.07
2018-03-31T05:37:18.945Z,997.10
2018-03-31T05:38:18.927Z,997.08
2018-03-31T05:39:19.189Z,997.09
2018-03-31T05:40:18.948Z,997.07
2018-03-31T05:41:18.901Z,997.12
2018-03-31T05:42:18.892Z,997.09
2018-03-31T05:43:18.879Z,997.14
2018-03-31T05:44:18.868Z,997.11
2018-03-31T05:45:18.856Z,997.14
2018-03-31T05:46:18.853Z,997.20
2018-03-31T05:47:18.839Z,997.18
2018-03-31T05:48:18.861Z,997.22
2018-03-31T05:49:18.818Z,997.21
2018-03-31T05:50:18.804Z,997.22
2018-03-31T05:51:18.802Z,997.21
2018-03-31T05:52:18.793Z,997.20
2018-03-31T05:53:18.850Z,997.19
2018-03-31T05:54:18.770Z,997.15
2018-03-31T05:55:18.760Z,997.15
2018-03-31T05:56:18.772Z,997.15
2018-03-31T05:57:18.753Z,997.10
2018-03-31T05:58:18.732Z,997.11
2018-03-31T05:59:18.720Z,997.15
2018-03-31T06:00:18.710Z,997.02
2018-03-31T06:01:18.703Z,997.04
2018-03-31T06:02:18.691Z,996.98
2018-03-31T06:03:18.682Z,996.97
2018-03-31T06:04:18.674Z,996.99
2018-03-31T06:05:18.664Z,996.95
2018-03-31T06:06:18.652Z,996.91
2018-03-31T06:07:18.641Z,996.84
2018-03-31T06:08:18.660Z,996.91
2018-03-31T06:09:18.627Z,996.82
2018-03-31T06:10:18.612Z,996.86
2018-03-31T06:11:18.604Z,996.84
2018-03-31T06:12:18.595Z,996.92
2018-03-31T06:13:18.588Z,996.83
2018-03-31T06:14:18.574Z,996.90
2018-03-31T06:15:18.565Z,996.92
2018-03-31T06:16:18.555Z,996.88
2018-03-31T06:17:18.551Z,996.95
2018-03-31T06:18:18.535Z,996.86
2018-03-31T06:19:18.528Z,996.84
2018-03-31T06:20:18.517Z,996.74
2018-03-31T06:21:18.508Z,996.75
2018-03-31T06:22:18.499Z,996.77
2018-03-31T06:23:18.492Z,996.74
2018-03-31T06:24:18.479Z,996.72
2018-03-31T06:25:18.480Z,996.80
2018-03-31T06:26:18.467Z,996.83
2018-03-31T06:27:18.450Z,996.80
2018-03-31T06:28:18.446Z,996.73
2018-03-31T06:29:18.431Z,996.73
2018-03-31T06:30:18.422Z,996.71
2018-03-31T06:31:18.416Z,996.73
2018-03-31T06:32:18.401Z,996.74
2018-03-31T06:33:18.395Z,996.77
2018-03-31T06:34:18.381Z,996.68
2018-03-31T06:35:18.466Z,996.68
2018-03-31T06:36:18.363Z,996.60
2018-03-31T06:37:18.354Z,996.62
2018-03-31T06:38:18.346Z,996.53
2018-03-31T06:39:18.335Z,996.55
2018-03-31T06:40:18.326Z,996.51
2018-03-31T06:41:18.319Z,996.40
2018-03-31T06:42:18.306Z,996.44
2018-03-31T06:43:18.298Z,996.47
2018-03-31T06:44:18.290Z,996.46
2018-03-31T06:45:18.276Z,996.50
2018-03-31T06:46:18.269Z,996.60
2018-03-31T06:47:18.256Z,996.37
2018-03-31T06:48:18.251Z,996.38
2018-03-31T06:49:18.238Z,996.36
2018-03-31T06:50:18.231Z,996.34
2018-03-31T06:51:18.224Z,996.27
2018-03-31T06:52:18.210Z,996.31
2018-03-31T06:53:18.201Z,996.29
2018-03-31T06:54:18.194Z,996.35
2018-03-31T06:55:18.180Z,996.30
2018-03-31T06:56:18.170Z,996.26
2018-03-31T06:57:18.160Z,996.22
2018-03-31T06:58:18.162Z,996.24
2018-03-31T06:59:18.142Z,996.24
2018-03-31T07:00:18.137Z,996.24
2018-03-31T07:01:18.124Z,996.20
2018-03-31T07:02:18.112Z,996.11
2018-03-31T07:03:18.104Z,996.18
2018-03-31T07:04:18.092Z,996.11
2018-03-31T07:05:18.085Z,996.28
2018-03-31T07:06:18.074Z,996.18
2018-03-31T07:07:18.063Z,996.25
2018-03-31T07:08:18.053Z,996.28
2018-03-31T07:09:18.052Z,996.38
2018-03-31T07:10:18.037Z,996.34
2018-03-31T07:11:18.026Z,996.36
2018-03-31T07:12:18.021Z,996.38
2018-03-31T07:13:18.004Z,996.36
2018-03-31T07:14:17.999Z,996.40
2018-03-31T07:15:17.985Z,996.35
2018-03-31T07:16:17.971Z,996.36
2018-03-31T07:17:17.964Z,996.24
2018-03-31T07:18:17.958Z,996.27
2018-03-31T07:19:17.945Z,996.34
2018-03-31T07:20:19.063Z,996.35
2018-03-31T07:21:17.925Z,996.33
2018-03-31T07:22:17.969Z,996.30
2018-03-31T07:23:17.904Z,996.36
2018-03-31T07:24:17.898Z,996.26
2018-03-31T07:25:17.887Z,996.44
2018-03-31T07:26:17.881Z,996.31
2018-03-31T07:27:17.903Z,996.38
2018-03-31T07:28:17.855Z,996.37
2018-03-31T07:29:17.849Z,996.28
2018-03-31T07:30:17.834Z,996.31
2018-03-31T07:31:17.825Z,996.31
2018-03-31T07:32:17.814Z,996.27
2018-03-31T07:33:17.808Z,996.30
2018-03-31T07:34:17.793Z,996.29
2018-03-31T07:35:17.784Z,996.31
2018-03-31T07:36:17.775Z,996.24
2018-03-31T07:37:17.767Z,996.27
2018-03-31T07:38:17.755Z,996.22
2018-03-31T07:39:17.746Z,996.19
2018-03-31T07:40:17.736Z,996.16
2018-03-31T07:41:17.740Z,996.16
2018-03-31T07:42:17.725Z,996.18
2018-03-31T07:43:17.704Z,996.06
2018-03-31T07:44:17.699Z,996.09
2018-03-31T07:45:17.688Z,996.08
2018-03-31T07:46:17.679Z,996.07
2018-03-31T07:47:17.666Z,996.11
2018-03-31T07:48:17.656Z,996.07
2018-03-31T07:49:17.648Z,996.05
2018-03-31T07:50:17.637Z,996.08
2018-03-31T07:51:17.632Z,996.10
2018-03-31T07:52:17.617Z,996.06
2018-03-31T07:53:17.610Z,996.10
2018-03-31T07:54:17.600Z,996.03
2018-03-31T07:55:17.590Z,996.07
2018-03-31T07:56:17.582Z,995.99
2018-03-31T07:57:17.572Z,996.03
2018-03-31T07:58:17.563Z,995.99
2018-03-31T07:59:17.548Z,995.97
2018-03-31T08:00:17.542Z,995.98
2018-03-31T08:01:17.536Z,995.95
2018-03-31T08:02:17.522Z,995.96
2018-03-31T08:03:17.513Z,995.96
2018-03-31T08:04:17.503Z,995.95
2018-03-31T08:05:17.492Z,995.90
2018-03-31T08:06:17.487Z,995.96
2018-03-31T08:07:17.479Z,995.90
2018-03-31T08:08:17.467Z,995.91
2018-03-31T08:09:17.460Z,995.83
2018-03-31T08:10:17.450Z,995.91
2018-03-31T08:11:17.439Z,995.83
2018-03-31T08:12:17.425Z,995.88
2018-03-31T08:13:17.418Z,995.81
2018-03-31T08:14:17.414Z,995.87
2018-03-31T08:15:17.402Z,995.89
2018-03-31T08:17:17.428Z,995.83
2018-03-31T08:18:17.417Z,995.81
2018-03-31T08:19:17.450Z,995.76
2018-03-31T08:20:17.395Z,995.76
2018-03-31T08:21:17.386Z,995.75
2018-03-31T08:22:17.385Z,995.72
2018-03-31T08:23:38.440Z,995.70
2018-03-31T08:24:17.375Z,995.65
2018-03-31T08:25:17.352Z,995.59
2018-03-31T08:26:17.342Z,995.60
2018-03-31T08:27:17.335Z,995.62
2018-03-31T08:28:17.333Z,995.59
2018-03-31T08:29:38.376Z,995.62
2018-03-31T08:30:17.370Z,995.59
2018-03-31T08:31:17.297Z,995.59
2018-03-31T08:32:17.288Z,995.61
2018-03-31T08:33:17.283Z,995.60
2018-03-31T08:34:17.271Z,995.60
2018-03-31T08:35:38.261Z,995.55
2018-03-31T08:36:17.250Z,995.51
2018-03-31T08:37:17.254Z,995.49
2018-03-31T08:38:17.234Z,995.53
2018-03-31T08:39:17.217Z,995.58
2018-03-31T08:40:17.216Z,995.50
2018-03-31T08:41:38.215Z,995.46
2018-03-31T08:42:17.400Z,995.45
2018-03-31T08:43:17.187Z,995.31
2018-03-31T08:44:17.178Z,995.33
2018-03-31T08:45:17.168Z,995.34
2018-03-31T08:46:17.160Z,995.26
2018-03-31T08:47:38.213Z,995.30
2018-03-31T08:48:17.141Z,995.29
2018-03-31T08:49:17.193Z,995.25
2018-03-31T08:50:17.315Z,995.18
2018-03-31T08:51:17.339Z,995.22
2018-03-31T08:52:17.104Z,995.24
2018-03-31T08:53:38.095Z,995.25
2018-03-31T08:54:17.084Z,995.21
2018-03-31T08:55:17.084Z,995.18
2018-03-31T08:56:17.061Z,995.21
2018-03-31T08:57:17.059Z,995.24
2018-03-31T08:58:17.056Z,995.17
2018-03-31T08:59:38.089Z,995.11
2018-03-31T09:00:17.247Z,995.21
2018-03-31T09:01:17.023Z,995.11
2018-03-31T09:02:17.008Z,995.15
2018-03-31T09:03:16.999Z,995.10
2018-03-31T09:04:16.993Z,995.13
2018-03-31T09:05:37.996Z,995.09
2018-03-31T09:06:16.978Z,995.13
2018-03-31T09:07:16.973Z,995.17
2018-03-31T09:08:16.975Z,995.12
2018-03-31T09:09:16.979Z,995.17
2018-03-31T09:10:16.940Z,995.16
2018-03-31T09:11:38.216Z,995.19
2018-03-31T09:12:16.915Z,995.13
2018-03-31T09:13:16.917Z,995.10
2018-03-31T09:14:16.908Z,995.06
2018-03-31T09:15:16.897Z,995.06
2018-03-31T09:16:16.888Z,995.09
2018-03-31T09:17:37.885Z,995.03
2018-03-31T09:18:16.875Z,995.01
2018-03-31T09:19:16.867Z,994.96
2018-03-31T09:20:16.859Z,994.99
2018-03-31T09:21:16.907Z,995.04
2018-03-31T09:22:16.839Z,995.05
2018-03-31T09:23:37.828Z,994.97
2018-03-31T09:24:16.825Z,995.13
2018-03-31T09:25:16.797Z,995.10
2018-03-31T09:26:16.807Z,995.09
2018-03-31T09:27:16.794Z,995.09
2018-03-31T09:28:16.777Z,995.10
2018-03-31T09:29:37.775Z,995.11
2018-03-31T09:30:16.762Z,995.08
2018-03-31T09:31:16.749Z,995.00
2018-03-31T09:32:16.753Z,995.09
2018-03-31T09:33:16.737Z,995.05
2018-03-31T09:34:16.738Z,995.08
2018-03-31T09:35:37.726Z,995.00
2018-03-31T09:36:16.711Z,995.06
2018-03-31T09:37:16.702Z,995.03
2018-03-31T09:38:16.696Z,994.95
2018-03-31T09:39:16.680Z,994.93
2018-03-31T09:40:16.672Z,994.84
2018-03-31T09:41:37.673Z,994.88
2018-03-31T09:42:16.659Z,994.89
2018-03-31T09:43:16.649Z,994.84
2018-03-31T09:44:16.658Z,994.90
2018-03-31T09:45:16.627Z,994.87
2018-03-31T09:46:16.612Z,994.90
2018-03-31T09:47:37.625Z,994.91
2018-03-31T09:48:16.615Z,994.91
2018-03-31T09:49:16.596Z,994.90
2018-03-31T09:50:16.583Z,994.98
2018-03-31T09:51:16.587Z,994.92
2018-03-31T09:52:16.567Z,994.84
2018-03-31T09:53:37.575Z,994.81
2018-03-31T09:54:16.550Z,994.83
2018-03-31T09:55:16.543Z,994.86
2018-03-31T09:56:16.535Z,994.81
2018-03-31T09:57:16.531Z,994.82
2018-03-31T09:58:16.521Z,994.74
2018-03-31T09:59:37.515Z,994.78
2018-03-31T10:00:16.502Z,994.77
2018-03-31T10:01:16.494Z,994.69
2018-03-31T10:02:16.482Z,994.74
2018-03-31T10:03:16.477Z,994.70
2018-03-31T10:04:16.474Z,994.68
2018-03-31T10:05:37.466Z,994.64
2018-03-31T10:06:16.454Z,994.60
2018-03-31T10:07:16.450Z,994.59
2018-03-31T10:08:16.432Z,994.57
2018-03-31T10:09:16.423Z,994.58
2018-03-31T10:10:16.420Z,994.52
2018-03-31T10:11:37.416Z,994.46
2018-03-31T10:12:16.401Z,994.60
2018-03-31T10:13:16.395Z,994.51
2018-03-31T10:14:16.476Z,994.67
2018-03-31T10:15:16.367Z,994.59
2018-03-31T10:16:16.366Z,994.63
2018-03-31T10:17:37.367Z,994.54
2018-03-31T10:18:16.353Z,994.53
2018-03-31T10:19:16.376Z,994.53
2018-03-31T10:20:16.331Z,994.45
2018-03-31T10:21:16.345Z,994.41
2018-03-31T10:22:16.317Z,994.42
2018-03-31T10:23:37.314Z,994.44
2018-03-31T10:24:16.300Z,994.43
2018-03-31T10:25:16.290Z,994.43
2018-03-31T10:26:16.281Z,994.42
2018-03-31T10:27:16.284Z,994.38
2018-03-31T10:28:16.271Z,994.31
2018-03-31T10:29:37.262Z,994.42
2018-03-31T10:30:16.254Z,994.32
2018-03-31T10:31:16.252Z,994.32
2018-03-31T10:32:16.243Z,994.22
2018-03-31T10:33:16.225Z,994.25
2018-03-31T10:34:16.215Z,994.30
2018-03-31T10:35:37.213Z,994.28
2018-03-31T10:36:16.196Z,994.39
2018-03-31T10:37:16.198Z,994.40
2018-03-31T10:38:16.182Z,994.32
2018-03-31T10:39:16.178Z,994.42
2018-03-31T10:40:16.179Z,994.42
2018-03-31T10:41:37.167Z,994.48
2018-03-31T10:42:16.149Z,994.43
2018-03-31T10:43:16.145Z,994.48
2018-03-31T10:44:16.136Z,994.44
2018-03-31T10:45:16.126Z,994.44
2018-03-31T10:46:16.118Z,994.45
2018-03-31T10:47:37.124Z,994.51
2018-03-31T10:48:16.114Z,994.55
2018-03-31T10:49:16.097Z,994.60
2018-03-31T10:50:16.087Z,994.72
2018-03-31T10:51:16.074Z,994.73
2018-03-31T10:52:16.068Z,994.82
2018-03-31T10:53:37.069Z,994.87
2018-03-31T10:54:16.056Z,994.93
2018-03-31T10:55:16.053Z,994.91
2018-03-31T10:56:16.038Z,994.89
2018-03-31T10:57:16.030Z,994.83
2018-03-31T10:58:16.022Z,994.83
2018-03-31T10:59:37.018Z,994.76
2018-03-31T11:00:16.003Z,994.82
2018-03-31T11:01:15.995Z,994.79
2018-03-31T11:02:15.995Z,994.77
2018-03-31T11:03:15.979Z,994.78
2018-03-31T11:04:15.972Z,994.83
2018-03-31T11:05:36.966Z,994.80
2018-03-31T11:06:15.951Z,994.82
2018-03-31T11:07:15.945Z,994.79
2018-03-31T11:08:15.937Z,994.78
2018-03-31T11:09:15.931Z,994.77
2018-03-31T11:10:15.927Z,994.76
2018-03-31T11:11:36.930Z,994.76
2018-03-31T11:12:15.912Z,994.74
2018-03-31T11:13:15.988Z,994.76
2018-03-31T11:14:15.894Z,994.76
2018-03-31T11:15:15.885Z,994.74
2018-03-31T11:16:15.878Z,994.71
2018-03-31T11:17:36.878Z,994.74
2018-03-31T11:18:15.855Z,994.74
2018-03-31T11:19:15.853Z,994.76
2018-03-31T11:20:15.848Z,994.80
2018-03-31T11:21:15.836Z,994.75
2018-03-31T11:22:15.824Z,994.75
2018-03-31T11:23:36.834Z,994.73
2018-03-31T11:24:15.811Z,994.72
2018-03-31T11:25:15.806Z,994.71
2018-03-31T11:26:15.790Z,994.65
2018-03-31T11:27:15.783Z,994.60
2018-03-31T11:28:15.789Z,994.66
2018-03-31T11:29:36.765Z,994.70
2018-03-31T11:30:15.766Z,994.70
2018-03-31T11:31:15.764Z,994.77
2018-03-31T11:32:15.752Z,994.76
2018-03-31T11:33:15.743Z,994.83
2018-03-31T11:34:15.734Z,994.82
2018-03-31T11:35:36.730Z,994.79
2018-03-31T11:36:15.719Z,994.78
2018-03-31T11:37:15.712Z,994.82
2018-03-31T11:38:15.705Z,994.78
2018-03-31T11:39:15.696Z,994.79
2018-03-31T11:40:15.684Z,994.81
2018-03-31T11:41:36.706Z,994.76
2018-03-31T11:42:15.663Z,994.79
2018-03-31T11:43:15.666Z,994.74
2018-03-31T11:44:15.655Z,994.72
2018-03-31T11:45:15.645Z,994.65
2018-03-31T11:46:15.648Z,994.59
2018-03-31T11:47:36.636Z,994.56
2018-03-31T11:48:15.629Z,994.56
2018-03-31T11:49:15.614Z,994.52
2018-03-31T11:50:15.605Z,994.52
2018-03-31T11:51:15.603Z,994.52
2018-03-31T11:52:15.597Z,994.52
2018-03-31T11:53:36.597Z,994.51
2018-03-31T11:54:15.640Z,994.55
2018-03-31T11:55:15.570Z,994.57
2018-03-31T11:56:15.564Z,994.56
2018-03-31T11:57:15.568Z,994.54
2018-03-31T11:58:15.585Z,994.53
2018-03-31T11:59:36.544Z,994.49
2018-03-31T12:00:15.536Z,994.42
2018-03-31T12:01:15.522Z,994.40
2018-03-31T12:02:15.516Z,994.35
2018-03-31T12:03:15.506Z,994.39
2018-03-31T12:04:15.498Z,994.37
2018-03-31T12:05:36.494Z,994.39
2018-03-31T12:06:15.792Z,994.38
2018-03-31T12:07:15.467Z,994.38
2018-03-31T12:08:15.463Z,994.34
2018-03-31T12:09:15.459Z,994.29
2018-03-31T12:10:15.458Z,994.28
2018-03-31T12:11:36.455Z,994.27
2018-03-31T12:12:15.437Z,994.30
2018-03-31T12:13:15.426Z,994.23
2018-03-31T12:14:15.424Z,994.28
2018-03-31T12:15:15.503Z,994.31
2018-03-31T12:16:15.410Z,994.29
2018-03-31T12:17:36.400Z,994.30
2018-03-31T12:18:15.389Z,994.29
2018-03-31T12:19:15.378Z,994.28
2018-03-31T12:20:15.364Z,994.26
2018-03-31T12:21:15.360Z,994.27
2018-03-31T12:22:15.360Z,994.28
2018-03-31T12:23:36.352Z,994.28
2018-03-31T12:24:15.343Z,994.31
2018-03-31T12:25:15.341Z,994.32
2018-03-31T12:26:15.324Z,994.28
2018-03-31T12:27:15.320Z,994.32
2018-03-31T12:28:15.311Z,994.30
2018-03-31T12:29:36.307Z,994.28